Time;durP1;ratioP1;P1;durP2;ratioP2;P2;SDS_P1;SDS_P2;PMS_P1;PMS_P2;Temp;Humidity;BMP_temperature;BMP_pressure;BME280_temperature;BME280_humidity;BME280_pressure;Samples;Min_cycle;Max_cycle;Signal;HPM_P1;HPM_P2
2022/06/03 00:00:48;;;;;;;6.57;2.53;;;12.80;99.90;;;;;;5007227;28;20480;-78
2022/06/03 00:03:25;;;;;;;5.17;2.60;;;12.80;99.90;;;;;;5012075;28;20426;-78
2022/06/03 00:05:58;;;;;;;4.20;2.20;;;12.80;99.90;;;;;;5014311;28;20241;-78
2022/06/03 00:09:03;;;;;;;3.33;1.83;;;12.70;99.90;;;;;;5001720;28;20514;-78
2022/06/03 00:12:03;;;;;;;3.40;2.07;;;12.70;99.90;;;;;;5003601;28;20446;-78
2022/06/03 00:14:59;;;;;;;3.93;2.30;;;12.70;99.90;;;;;;4992730;28;20454;-78
2022/06/03 00:17:39;;;;;;;4.30;2.83;;;12.70;99.90;;;;;;5012013;28;20418;-78
2022/06/03 00:20:24;;;;;;;4.93;2.40;;;12.70;99.90;;;;;;5006534;28;20505;-78
2022/06/03 00:22:49;;;;;;;5.87;1.77;;;12.60;99.90;;;;;;5002445;28;20426;-78
2022/06/03 00:25:42;;;;;;;3.60;2.07;;;12.60;99.90;;;;;;5015012;28;20905;-78
2022/06/03 00:28:13;;;;;;;3.00;2.17;;;12.60;99.90;;;;;;5014764;28;20279;-79
2022/06/03 00:30:49;;;;;;;3.63;1.77;;;12.70;99.90;;;;;;5010226;28;20425;-78
2022/06/03 00:33:56;;;;;;;4.87;1.93;;;12.70;99.90;;;;;;4995260;28;20493;-79
2022/06/03 00:36:24;;;;;;;4.93;2.03;;;12.60;99.90;;;;;;4983132;28;20423;-78
2022/06/03 00:39:23;;;;;;;4.90;2.73;;;12.60;99.90;;;;;;5008195;28;20411;-78
2022/06/03 00:42:08;;;;;;;3.90;2.13;;;12.60;99.90;;;;;;5010788;28;20429;-78
2022/06/03 00:44:52;;;;;;;3.73;2.07;;;12.60;99.90;;;;;;5014497;28;20450;-78
2022/06/03 00:47:39;;;;;;;3.53;2.20;;;12.60;99.90;;;;;;5014817;28;20948;-78
2022/06/03 00:50:23;;;;;;;3.07;2.27;;;12.50;99.90;;;;;;5010819;28;20413;-78
2022/06/03 00:53:10;;;;;;;4.10;1.83;;;12.50;99.90;;;;;;4994647;28;20553;-78
2022/06/03 00:56:20;;;;;;;4.00;2.37;;;12.50;99.90;;;;;;4994582;28;20898;-78
2022/06/03 00:58:51;;;;;;;10.67;2.87;;;12.50;99.90;;;;;;4966278;28;20470;-78
2022/06/03 01:01:39;;;;;;;3.30;2.10;;;12.60;99.90;;;;;;4972976;28;20440;-78
2022/06/03 01:04:36;;;;;;;4.63;2.33;;;12.60;99.90;;;;;;4989588;28;20449;-78
2022/06/03 01:07:16;;;;;;;4.67;2.23;;;12.50;99.90;;;;;;5011369;28;20876;-78
2022/06/03 01:10:03;;;;;;;2.90;1.83;;;12.50;99.90;;;;;;5014071;28;20883;-78
2022/06/03 01:12:31;;;;;;;4.63;2.60;;;12.50;99.90;;;;;;5008767;28;20450;-78
2022/06/03 01:15:48;;;;;;;4.10;2.13;;;12.50;99.90;;;;;;5001774;28;20425;-78
2022/06/03 01:18:28;;;;;;;3.97;2.23;;;12.40;99.90;;;;;;4979533;28;20442;-78
2022/06/03 01:21:28;;;;;;;4.97;2.10;;;12.40;99.90;;;;;;4998172;28;20415;-78
2022/06/03 01:24:12;;;;;;;5.87;2.63;;;12.30;99.90;;;;;;4965483;28;20514;-78
2022/06/03 01:27:05;;;;;;;5.23;3.00;;;12.20;99.90;;;;;;5003878;28;20418;-78
2022/06/03 01:29:57;;;;;;;5.17;2.30;;;12.20;99.90;;;;;;5003506;28;20517;-78
2022/06/03 01:32:22;;;;;;;2.63;1.87;;;12.20;99.90;;;;;;5007795;28;21165;-78
2022/06/03 01:34:51;;;;;;;4.00;2.40;;;12.20;99.90;;;;;;5001502;28;20415;-78
2022/06/03 01:37:47;;;;;;;3.20;2.07;;;12.20;99.90;;;;;;5013028;28;20246;-78
2022/06/03 01:40:25;;;;;;;4.20;2.63;;;12.20;99.90;;;;;;4997475;28;20465;-78
2022/06/03 01:43:17;;;;;;;4.63;2.40;;;12.10;99.90;;;;;;5005914;28;20422;-78
2022/06/03 01:46:11;;;;;;;3.00;2.00;;;12.10;99.90;;;;;;4993066;28;20736;-78
2022/06/03 01:49:14;;;;;;;4.33;2.30;;;12.20;99.90;;;;;;4982143;28;20469;-78
2022/06/03 01:51:48;;;;;;;3.37;2.37;;;12.20;99.90;;;;;;5011335;28;20796;-77
2022/06/03 01:54:22;;;;;;;4.93;2.47;;;12.20;99.90;;;;;;5012805;28;20437;-78
2022/06/03 01:57:06;;;;;;;6.10;2.37;;;12.20;99.90;;;;;;5012811;28;20474;-78
2022/06/03 01:59:50;;;;;;;4.90;2.90;;;12.20;99.90;;;;;;5012860;28;20425;-78
2022/06/03 02:02:46;;;;;;;4.10;2.40;;;12.10;99.90;;;;;;5011079;28;20422;-78
2022/06/03 02:05:23;;;;;;;3.37;2.13;;;12.10;99.90;;;;;;5003338;28;20464;-78
2022/06/03 02:08:19;;;;;;;3.77;2.10;;;12.10;99.90;;;;;;5007795;28;20852;-78
2022/06/03 02:11:06;;;;;;;2.93;2.00;;;12.10;99.90;;;;;;4995883;28;20560;-78
2022/06/03 02:13:46;;;;;;;6.37;3.37;;;12.10;99.90;;;;;;5012646;28;20472;-78
2022/06/03 02:16:50;;;;;;;3.93;2.43;;;12.10;99.90;;;;;;5009904;28;20450;-78
2022/06/03 02:19:27;;;;;;;4.17;2.97;;;12.10;99.90;;;;;;5007058;28;20421;-78
2022/06/03 02:22:17;;;;;;;3.23;2.30;;;12.10;99.90;;;;;;5012511;28;20433;-78
2022/06/03 02:25:05;;;;;;;3.90;2.47;;;12.20;99.90;;;;;;5011825;28;20426;-78
2022/06/03 02:27:34;;;;;;;3.10;1.97;;;12.20;99.90;;;;;;5005887;28;20448;-78
2022/06/03 02:33:27;;;;;;;5.10;2.67;;;12.20;99.90;;;;;;5011629;28;20557;-78
2022/06/03 02:36:04;;;;;;;6.30;2.30;;;12.20;99.90;;;;;;4998848;28;20491;-78
2022/06/03 02:39:03;;;;;;;11.10;2.47;;;12.20;99.90;;;;;;4999043;28;20414;-78
2022/06/03 02:41:59;;;;;;;5.00;2.57;;;12.20;99.90;;;;;;5012177;28;20386;-78
2022/06/03 02:44:24;;;;;;;4.83;2.63;;;12.30;99.90;;;;;;5011842;28;21509;-78
2022/06/03 02:47:08;;;;;;;4.63;2.80;;;12.30;99.90;;;;;;5012296;28;20520;-78
2022/06/03 02:50:01;;;;;;;6.93;2.40;;;12.30;99.90;;;;;;4998904;28;20184;-78
2022/06/03 02:53:04;;;;;;;4.00;2.80;;;12.40;99.90;;;;;;4999509;28;20455;-79
2022/06/03 02:55:42;;;;;;;4.13;2.70;;;12.40;99.90;;;;;;5004072;28;20420;-78
2022/06/03 02:58:50;;;;;;;5.90;3.40;;;12.50;99.90;;;;;;5012257;28;20425;-78
2022/06/03 03:01:53;;;;;;;4.53;2.53;;;12.50;99.90;;;;;;5015698;28;20429;-78
2022/06/03 03:04:56;;;;;;;4.83;2.67;;;12.60;99.90;;;;;;5016082;28;20562;-78
2022/06/03 03:07:54;;;;;;;3.53;2.50;;;12.60;99.90;;;;;;5016757;28;20780;-78
2022/06/03 03:10:30;;;;;;;4.63;2.20;;;12.70;99.90;;;;;;4967142;28;20442;-78
2022/06/03 03:13:19;;;;;;;6.43;2.33;;;12.70;99.90;;;;;;5013401;28;20487;-78
2022/06/03 03:16:09;;;;;;;5.57;3.27;;;12.70;99.90;;;;;;5013833;28;20426;-78
2022/06/03 03:19:17;;;;;;;4.20;2.73;;;12.70;99.90;;;;;;5016574;28;20482;-78
2022/06/03 03:21:46;;;;;;;3.87;2.23;;;12.60;99.90;;;;;;4996558;28;20406;-78
2022/06/03 03:24:50;;;;;;;26.93;2.50;;;12.60;99.90;;;;;;5012922;28;20428;-78
2022/06/03 03:27:41;;;;;;;4.23;2.33;;;12.60;99.90;;;;;;4968771;28;20421;-78
2022/06/03 03:30:09;;;;;;;6.03;3.20;;;12.50;99.90;;;;;;5016009;28;20960;-78
2022/06/03 03:32:47;;;;;;;4.20;2.67;;;12.50;99.90;;;;;;5016093;28;20843;-78
2022/06/03 03:35:50;;;;;;;3.70;2.07;;;12.50;99.90;;;;;;5008304;28;20449;-78
2022/06/03 03:38:24;;;;;;;5.47;2.63;;;12.50;99.90;;;;;;5002887;28;20429;-78
2022/06/03 03:40:59;;;;;;;4.63;2.57;;;12.50;99.90;;;;;;5015165;28;20412;-78
2022/06/03 03:43:36;;;;;;;3.50;2.37;;;12.50;99.90;;;;;;4996515;28;20410;-78
2022/06/03 03:46:29;;;;;;;3.10;2.17;;;12.50;99.90;;;;;;5008738;28;20484;-78
2022/06/03 03:49:06;;;;;;;4.73;2.77;;;12.60;99.90;;;;;;5005757;28;20440;-78
2022/06/03 03:51:44;;;;;;;3.57;2.30;;;12.60;99.90;;;;;;5011816;28;20422;-78
2022/06/03 03:54:22;;;;;;;5.00;2.97;;;12.70;99.90;;;;;;5008481;28;20512;-78
2022/06/03 03:57:16;;;;;;;4.67;2.93;;;12.70;99.90;;;;;;4996263;28;20474;-78
2022/06/03 03:59:56;;;;;;;6.00;2.83;;;12.80;99.90;;;;;;5000291;28;20938;-78
2022/06/03 04:02:45;;;;;;;4.27;2.57;;;12.80;99.90;;;;;;5008721;28;20421;-78
2022/06/03 04:05:38;;;;;;;3.73;2.57;;;12.80;99.90;;;;;;5012807;28;20441;-78
2022/06/03 04:08:25;;;;;;;6.53;3.13;;;12.90;99.90;;;;;;5004580;28;20445;-78
2022/06/03 04:10:53;;;;;;;3.57;2.60;;;12.90;99.90;;;;;;5015241;28;20417;-78
2022/06/03 04:13:34;;;;;;;5.33;2.77;;;13.00;99.90;;;;;;5004844;28;20458;-78
2022/06/03 04:16:11;;;;;;;3.90;2.77;;;13.00;99.90;;;;;;5002347;28;20414;-78
2022/06/03 04:19:13;;;;;;;6.00;2.70;;;13.00;99.90;;;;;;5014109;28;20437;-78
2022/06/03 04:21:51;;;;;;;4.60;2.93;;;13.00;99.90;;;;;;4995882;28;20442;-78
2022/06/03 04:24:19;;;;;;;6.50;3.50;;;13.00;99.90;;;;;;5003181;28;20406;-78
2022/06/03 04:27:22;;;;;;;6.97;3.40;;;13.10;99.90;;;;;;5015181;28;20406;-78
2022/06/03 04:29:50;;;;;;;5.13;3.33;;;13.10;99.90;;;;;;5001850;28;20919;-78
2022/06/03 04:33:10;;;;;;;3.80;2.53;;;13.10;99.90;;;;;;4995490;28;20495;-78
2022/06/03 04:35:41;;;;;;;6.27;4.10;;;13.10;99.90;;;;;;4942724;29;20936;-78
2022/06/03 04:38:18;;;;;;;5.53;3.33;;;13.10;99.90;;;;;;5010972;28;20430;-78
2022/06/03 04:41:28;;;;;;;6.30;3.40;;;13.10;99.90;;;;;;4995649;28;20407;-78
2022/06/03 04:44:15;;;;;;;7.33;3.10;;;13.20;99.90;;;;;;4990124;28;20495;-78
2022/06/03 04:46:56;;;;;;;6.53;3.10;;;13.20;99.90;;;;;;5013365;28;20449;-78
2022/06/03 04:49:24;;;;;;;6.00;3.50;;;13.20;99.90;;;;;;5014485;28;20512;-78
2022/06/03 04:52:12;;;;;;;5.00;3.23;;;13.30;99.90;;;;;;5002346;28;20418;-78
2022/06/03 04:55:01;;;;;;;5.87;3.83;;;13.30;99.90;;;;;;5000519;28;20427;-77
2022/06/03 04:57:45;;;;;;;7.20;3.73;;;13.40;99.90;;;;;;5012178;28;20976;-76
2022/06/03 05:00:20;;;;;;;9.13;4.40;;;13.50;99.90;;;;;;5010121;28;20646;-78
2022/06/03 05:02:48;;;;;;;6.63;3.90;;;13.60;99.90;;;;;;5011382;28;20487;-78
2022/06/03 05:05:17;;;;;;;5.93;3.77;;;13.70;99.90;;;;;;5000889;28;21094;-78
2022/06/03 05:08:01;;;;;;;7.20;4.30;;;13.80;99.90;;;;;;4996517;28;20430;-77
2022/06/03 05:10:52;;;;;;;8.07;4.00;;;13.90;99.90;;;;;;5003649;28;20468;-76
2022/06/03 05:13:23;;;;;;;7.27;4.47;;;14.00;99.90;;;;;;4991864;28;20565;-76
2022/06/03 05:16:26;;;;;;;15.13;4.43;;;14.10;99.90;;;;;;5005299;28;20414;-76
2022/06/03 05:18:51;;;;;;;5.10;3.40;;;14.10;99.90;;;;;;5006049;28;20466;-77
2022/06/03 05:21:45;;;;;;;7.10;4.37;;;14.20;99.90;;;;;;5012550;28;20437;-77
2022/06/03 05:24:29;;;;;;;7.37;4.17;;;14.30;99.90;;;;;;5007184;28;20191;-76
2022/06/03 05:27:16;;;;;;;7.37;3.90;;;14.30;99.90;;;;;;5004805;28;20512;-74
2022/06/03 05:29:50;;;;;;;5.47;4.00;;;14.40;99.90;;;;;;5007357;28;20425;-74
2022/06/03 05:32:16;;;;;;;6.50;3.60;;;14.60;99.90;;;;;;5003407;28;20957;-75
2022/06/03 05:35:15;;;;;;;5.07;3.33;;;14.70;99.90;;;;;;5008332;28;20442;-74
2022/06/03 05:38:02;;;;;;;8.13;3.97;;;14.70;99.90;;;;;;4992995;28;20226;-75
2022/06/03 05:40:39;;;;;;;8.60;3.53;;;14.80;99.90;;;;;;5005384;28;20469;-75
2022/06/03 05:43:17;;;;;;;10.17;3.57;;;14.90;99.90;;;;;;5009211;28;20429;-75
2022/06/03 05:45:42;;;;;;;6.00;3.70;;;15.00;99.90;;;;;;4996612;28;21022;-75
2022/06/03 05:48:17;;;;;;;7.07;3.90;;;15.10;99.90;;;;;;4997651;28;20533;-75
2022/06/03 05:51:05;;;;;;;6.17;4.23;;;15.10;99.90;;;;;;4999651;28;20186;-74
2022/06/03 05:53:44;;;;;;;5.33;3.40;;;15.20;99.90;;;;;;4992380;28;20568;-74
2022/06/03 05:56:33;;;;;;;13.53;4.00;;;15.30;99.90;;;;;;5006183;28;20418;-74
2022/06/03 05:59:17;;;;;;;6.20;3.37;;;15.40;99.90;;;;;;4995884;28;20410;-74
2022/06/03 06:02:10;;;;;;;5.43;3.47;;;15.50;99.90;;;;;;5008641;28;20486;-74
2022/06/03 06:04:55;;;;;;;7.40;4.13;;;15.60;99.90;;;;;;5002274;28;20441;-74
2022/06/03 06:07:36;;;;;;;7.40;3.47;;;15.70;99.90;;;;;;4998636;28;20429;-74
2022/06/03 06:10:21;;;;;;;6.53;3.30;;;15.90;99.90;;;;;;4992052;28;20422;-74
2022/06/03 06:13:11;;;;;;;5.00;2.70;;;16.00;99.90;;;;;;4997427;28;20826;-75
2022/06/03 06:15:55;;;;;;;5.47;3.77;;;16.20;99.90;;;;;;5012400;28;20414;-75
2022/06/03 06:18:35;;;;;;;4.60;2.90;;;16.40;99.90;;;;;;4998540;28;20426;-74
2022/06/03 06:21:37;;;;;;;5.30;3.10;;;16.50;99.90;;;;;;4992401;28;21178;-74
2022/06/03 06:24:29;;;;;;;4.80;2.80;;;16.60;99.90;;;;;;5004347;28;20433;-74
2022/06/03 06:27:00;;;;;;;5.13;2.80;;;16.70;99.90;;;;;;4978914;28;20480;-74
2022/06/03 06:29:35;;;;;;;7.57;3.40;;;16.90;99.90;;;;;;5003460;28;20458;-74
2022/06/03 06:32:15;;;;;;;4.70;3.57;;;17.00;99.90;;;;;;5009052;28;20512;-75
2022/06/03 06:34:50;;;;;;;7.40;3.53;;;17.10;99.90;;;;;;5007249;28;20505;-74
2022/06/03 06:37:27;;;;;;;4.60;3.20;;;17.20;99.90;;;;;;5009830;28;20413;-74
2022/06/03 06:40:07;;;;;;;17.30;3.40;;;17.40;99.90;;;;;;5011097;28;20413;-74
2022/06/03 06:42:41;;;;;;;10.63;3.73;;;17.50;99.90;;;;;;5006544;28;20489;-75
2022/06/03 06:45:13;;;;;;;8.13;3.13;;;17.60;99.90;;;;;;5001221;28;20770;-74
2022/06/03 06:47:59;;;;;;;5.47;2.77;;;17.80;99.90;;;;;;5008208;28;20421;-75
2022/06/03 06:50:51;;;;;;;5.70;3.03;;;17.90;99.90;;;;;;4997671;28;20518;-75
2022/06/03 06:53:26;;;;;;;9.70;3.40;;;18.00;99.90;;;;;;4991911;28;20934;-75
2022/06/03 06:56:04;;;;;;;5.60;3.30;;;18.10;99.90;;;;;;5005707;28;20440;-75
2022/06/03 06:58:42;;;;;;;6.00;2.53;;;18.30;99.90;;;;;;5003406;28;20441;-75
2022/06/03 07:01:10;;;;;;;6.10;3.43;;;18.50;99.90;;;;;;5007997;28;20452;-75
2022/06/03 07:03:56;;;;;;;5.90;3.60;;;18.70;99.90;;;;;;5009748;28;20462;-75
2022/06/03 07:06:25;;;;;;;4.87;3.00;;;19.00;99.90;;;;;;5003138;28;20414;-75
2022/06/03 07:09:10;;;;;;;6.20;3.10;;;19.10;99.90;;;;;;4996400;28;20437;-75
2022/06/03 07:11:44;;;;;;;5.80;2.70;;;19.40;99.90;;;;;;4996887;28;20415;-75
2022/06/03 07:14:24;;;;;;;6.20;2.40;;;19.70;99.90;;;;;;5001927;28;20427;-75
2022/06/03 07:20:01;;;;;;;8.80;2.13;;;20.50;99.90;;;;;;5003729;28;20799;-75
2022/06/03 07:22:37;;;;;;;5.50;2.40;;;21.00;99.90;;;;;;4994713;28;20507;-74
2022/06/03 07:25:15;;;;;;;3.53;2.20;;;21.60;99.50;;;;;;4995347;28;20461;-75
2022/06/03 07:27:44;;;;;;;5.63;2.87;;;21.90;99.60;;;;;;5008634;28;20450;-75
2022/06/03 07:30:44;;;;;;;5.73;2.50;;;21.90;99.10;;;;;;5009089;28;20544;-75
2022/06/03 07:33:35;;;;;;;6.80;2.20;;;22.10;98.00;;;;;;4984428;28;21213;-74
2022/06/03 07:36:08;;;;;;;4.57;2.13;;;22.30;97.40;;;;;;5009208;28;20436;-75
2022/06/03 07:38:55;;;;;;;3.77;2.07;;;22.50;97.40;;;;;;4988711;28;20441;-74
2022/06/03 07:41:43;;;;;;;5.60;2.43;;;22.60;96.90;;;;;;5008949;28;20430;-75
2022/06/03 07:44:34;;;;;;;3.83;2.00;;;22.70;97.00;;;;;;4993825;28;20449;-75
2022/06/03 07:47:03;;;;;;;5.33;2.40;;;23.40;95.80;;;;;;5001441;28;20917;-75
2022/06/03 07:49:34;;;;;;;3.90;1.93;;;23.60;95.20;;;;;;5012021;28;20418;-75
2022/06/03 07:52:27;;;;;;;2.87;2.00;;;23.50;95.00;;;;;;4998459;28;20461;-75
2022/06/03 07:54:58;;;;;;;3.10;2.13;;;24.20;95.30;;;;;;4998183;28;20898;-75
2022/06/03 07:57:28;;;;;;;3.53;2.30;;;24.80;94.80;;;;;;5001569;28;20453;-74
2022/06/03 07:59:59;;;;;;;3.30;1.38;;;26.50;91.10;;;;;;5004253;28;20174;-74
2022/06/03 08:02:26;;;;;;;3.95;2.15;;;27.20;89.00;;;;;;5004823;28;20318;-75
2022/06/03 08:05:14;;;;;;;2.55;1.48;;;28.10;85.10;;;;;;5011819;28;20198;-75
2022/06/03 08:10:57;;;;;;;5.40;2.42;;;28.50;82.90;;;;;;5005388;28;20238;-75
2022/06/03 08:13:51;;;;;;;3.17;2.13;;;29.60;77.10;;;;;;5006344;28;20202;-74
2022/06/03 08:16:16;;;;;;;2.20;1.40;;;29.90;76.50;;;;;;5009580;28;20207;-73
2022/06/03 08:18:43;;;;;;;3.42;2.10;;;29.20;78.20;;;;;;5010505;28;20178;-73
2022/06/03 08:21:27;;;;;;;3.13;1.83;;;29.70;75.60;;;;;;5011144;28;20220;-73
2022/06/03 08:23:55;;;;;;;6.18;2.70;;;29.00;77.40;;;;;;5010657;28;20193;-73
2022/06/03 08:26:26;;;;;;;6.05;2.78;;;30.00;74.50;;;;;;5009749;28;20260;-73
2022/06/03 08:28:59;;;;;;;4.07;2.15;;;30.40;74.10;;;;;;4997182;28;20299;-73
2022/06/03 08:31:25;;;;;;;3.00;2.10;;;30.00;74.50;;;;;;5010463;28;20209;-73
2022/06/03 08:33:59;;;;;;;4.13;2.20;;;29.30;75.50;;;;;;5010529;28;20264;-72
2022/06/03 08:36:34;;;;;;;3.40;2.03;;;28.50;76.90;;;;;;5007629;28;21562;-73
2022/06/03 08:39:08;;;;;;;4.88;1.95;;;27.60;79.60;;;;;;5004200;28;20522;-73
2022/06/03 08:41:52;;;;;;;3.33;1.77;;;26.50;82.80;;;;;;5005632;28;20527;-74
2022/06/03 08:44:26;;;;;;;2.40;1.58;;;25.70;86.40;;;;;;4994213;28;20636;-75
2022/06/03 08:46:53;;;;;;;3.83;1.73;;;25.50;88.10;;;;;;5002486;28;20220;-75
2022/06/03 08:49:23;;;;;;;2.80;1.70;;;26.20;86.90;;;;;;5011084;28;20211;-74
2022/06/03 08:52:01;;;;;;;2.42;1.80;;;26.00;86.20;;;;;;5006745;28;20265;-74
2022/06/03 08:54:39;;;;;;;3.25;1.90;;;26.50;86.30;;;;;;5000096;28;20199;-74
2022/06/03 08:57:20;;;;;;;2.88;1.80;;;27.40;85.50;;;;;;5002323;28;20225;-74
2022/06/03 08:59:53;;;;;;;4.70;2.00;;;28.20;80.20;;;;;;4999413;28;20225;-74
2022/06/03 09:02:33;;;;;;;9.07;2.15;;;28.50;79.90;;;;;;5003504;28;20320;-74
2022/06/03 09:05:42;;;;;;;2.78;1.70;;;29.30;76.30;;;;;;5011252;28;20240;-75
2022/06/03 09:08:49;;;;;;;8.18;1.80;;;29.40;76.00;;;;;;5005591;28;20225;-74
2022/06/03 09:11:36;;;;;;;3.35;1.77;;;29.40;75.60;;;;;;4988889;28;20201;-75
2022/06/03 09:14:08;;;;;;;3.03;1.50;;;29.20;76.80;;;;;;4991102;28;20202;-74
2022/06/03 09:16:35;;;;;;;6.47;2.10;;;28.00;79.30;;;;;;5005378;28;20229;-74
2022/06/03 09:19:17;;;;;;;4.07;2.40;;;28.00;80.10;;;;;;5010946;28;20179;-75
2022/06/03 09:21:46;;;;;;;5.22;1.80;;;28.20;80.50;;;;;;5009641;28;20257;-72
2022/06/03 09:24:26;;;;;;;2.47;1.58;;;28.70;79.30;;;;;;5005565;28;20878;-72
2022/06/03 09:26:58;;;;;;;2.80;2.00;;;28.40;79.00;;;;;;5010536;28;20178;-72
2022/06/03 09:29:25;;;;;;;2.90;1.73;;;28.90;78.00;;;;;;5009348;28;20261;-72
2022/06/03 09:31:56;;;;;;;3.00;1.98;;;28.50;78.90;;;;;;5008106;28;20201;-72
2022/06/03 09:34:42;;;;;;;4.05;2.05;;;28.10;80.00;;;;;;5010377;28;20186;-72
2022/06/03 09:37:19;;;;;;;3.75;2.80;;;28.20;79.10;;;;;;4999964;28;20183;-72
2022/06/03 09:39:48;;;;;;;2.97;1.77;;;27.70;80.10;;;;;;5001186;28;20236;-72
2022/06/03 09:42:16;;;;;;;5.40;2.45;;;27.80;78.90;;;;;;5007391;28;20194;-73
2022/06/03 09:44:45;;;;;;;2.80;1.92;;;27.90;80.40;;;;;;5000578;28;20195;-72
2022/06/03 09:47:14;;;;;;;4.05;2.15;;;28.10;79.50;;;;;;4990580;28;20620;-73
2022/06/03 09:49:40;;;;;;;3.65;2.00;;;28.40;79.60;;;;;;4991424;28;20187;-73
2022/06/03 09:52:12;;;;;;;4.50;1.92;;;28.60;75.60;;;;;;4991027;28;20274;-73
2022/06/03 09:54:42;;;;;;;7.55;2.05;;;28.80;75.50;;;;;;4992009;28;20194;-72
2022/06/03 09:57:14;;;;;;;2.58;1.52;;;28.80;75.50;;;;;;5002174;28;20194;-70
2022/06/03 09:59:49;;;;;;;2.17;1.38;;;28.10;76.60;;;;;;5001463;23;20243;-70
2022/06/03 10:02:15;;;;;;;2.80;1.70;;;28.30;77.00;;;;;;4965972;28;20706;-68
2022/06/03 10:04:40;;;;;;;4.45;1.73;;;28.50;75.90;;;;;;4967575;28;20179;-68
2022/06/03 10:07:07;;;;;;;3.45;2.13;;;28.50;75.60;;;;;;4969989;28;20606;-65
2022/06/03 10:18:01;;;;;;;3.13;1.98;;;28.40;72.10;;;;;;4967906;28;20532;-68
2022/06/03 10:20:27;;;;;;;4.57;1.65;;;28.30;74.80;;;;;;4968094;28;20210;-67
2022/06/03 10:22:54;;;;;;;3.67;1.83;;;28.50;73.40;;;;;;4966538;28;20750;-67
2022/06/03 10:25:19;;;;;;;3.83;1.70;;;28.50;76.10;;;;;;4967100;28;20279;-68
2022/06/03 10:27:45;;;;;;;3.15;2.05;;;28.70;74.80;;;;;;4968026;28;20938;-69
2022/06/03 10:30:12;;;;;;;3.17;1.35;;;28.70;73.00;;;;;;4967802;28;20556;-69
2022/06/03 10:32:37;;;;;;;7.78;1.95;;;28.90;73.30;;;;;;4967420;28;20215;-70
2022/06/03 10:35:16;;;;;;;5.60;1.83;;;29.30;70.20;;;;;;4968784;28;20725;-69
2022/06/03 10:37:56;;;;;;;2.85;1.33;;;29.00;73.40;;;;;;4987513;28;20271;-70
2022/06/03 10:40:24;;;;;;;2.67;1.73;;;28.80;72.60;;;;;;4983578;28;20246;-70
2022/06/03 10:42:54;;;;;;;4.53;1.75;;;28.60;71.00;;;;;;4971784;28;20274;-69
2022/06/03 10:45:30;;;;;;;2.45;1.35;;;28.10;72.00;;;;;;4982882;28;20180;-68
2022/06/03 10:47:56;;;;;;;2.10;1.27;;;28.00;72.30;;;;;;4983128;28;20206;-68
2022/06/03 10:50:27;;;;;;;5.65;1.80;;;28.00;72.70;;;;;;4985998;28;20220;-68
2022/06/03 11:01:31;;;;;;;3.88;1.92;;;28.40;73.30;;;;;;4982773;28;20245;-69
2022/06/03 11:03:58;;;;;;;8.32;1.63;;;28.30;75.10;;;;;;4980785;28;20235;-70
2022/06/03 11:06:31;;;;;;;2.75;1.55;;;28.30;75.80;;;;;;4986622;28;20225;-69
2022/06/03 11:08:59;;;;;;;3.00;1.58;;;28.10;74.60;;;;;;4986072;28;20274;-69
2022/06/03 11:11:46;;;;;;;3.30;1.63;;;27.60;75.60;;;;;;4985847;28;20190;-66
2022/06/03 11:14:26;;;;;;;2.60;1.93;;;27.10;79.10;;;;;;4985134;28;20743;-70
2022/06/03 11:17:02;;;;;;;2.90;1.70;;;26.70;77.50;;;;;;4981388;28;20203;-66
2022/06/03 11:19:38;;;;;;;8.57;2.13;;;26.50;78.20;;;;;;4979448;28;20192;-69
2022/06/03 11:22:13;;;;;;;3.00;1.40;;;26.30;79.10;;;;;;4978041;28;20191;-68
2022/06/03 11:24:39;;;;;;;8.83;1.87;;;26.20;81.90;;;;;;4982279;28;20185;-68
2022/06/03 11:27:08;;;;;;;4.40;2.17;;;26.00;85.30;;;;;;4978035;28;20419;-67
2022/06/03 11:29:38;;;;;;;5.93;2.20;;;25.80;89.30;;;;;;4980293;28;20463;-68
2022/06/03 11:32:07;;;;;;;3.03;1.80;;;25.80;86.80;;;;;;4981748;28;20418;-68
2022/06/03 11:34:41;;;;;;;7.30;2.07;;;25.80;85.10;;;;;;4989303;28;20422;-69
2022/06/03 11:37:23;;;;;;;6.90;2.20;;;25.80;85.50;;;;;;4990003;28;20427;-70
2022/06/03 11:39:59;;;;;;;4.53;1.90;;;26.00;82.50;;;;;;4989480;28;20469;-71
2022/06/03 11:42:47;;;;;;;3.70;1.63;;;26.20;84.20;;;;;;4979595;28;20461;-70
2022/06/03 11:45:21;;;;;;;2.37;1.33;;;26.30;82.80;;;;;;4982423;28;20516;-71
2022/06/03 11:48:06;;;;;;;3.20;1.80;;;26.60;80.60;;;;;;4986964;28;20441;-72
2022/06/03 11:50:33;;;;;;;2.93;1.47;;;26.60;81.90;;;;;;4982675;28;20554;-71
2022/06/03 11:52:59;;;;;;;3.07;2.10;;;26.60;81.40;;;;;;4986675;28;20501;-68
2022/06/03 11:55:27;;;;;;;2.60;1.47;;;26.60;79.80;;;;;;4988430;28;20477;-68
2022/06/03 11:58:02;;;;;;;3.80;1.60;;;26.40;80.80;;;;;;4988043;28;21130;-69
2022/06/03 12:00:33;;;;;;;2.47;1.57;;;26.20;79.70;;;;;;4988876;28;20507;-69
2022/06/03 12:03:09;;;;;;;2.93;1.93;;;26.10;80.50;;;;;;4988445;28;20510;-69
2022/06/03 12:05:44;;;;;;;2.43;1.50;;;26.00;80.90;;;;;;4994238;28;20430;-68
2022/06/03 12:08:33;;;;;;;3.23;1.77;;;25.90;82.80;;;;;;4987705;28;20460;-66
2022/06/03 12:14:27;;;;;;;3.77;1.63;;;26.10;79.80;;;;;;4987322;28;20508;-70
2022/06/03 12:17:10;;;;;;;2.43;1.40;;;26.20;79.60;;;;;;4988532;28;20929;-68
2022/06/03 12:19:42;;;;;;;3.80;2.17;;;26.20;79.70;;;;;;4989754;28;20746;-67
2022/06/03 12:22:33;;;;;;;7.27;2.30;;;26.30;78.80;;;;;;4986643;28;21209;-70
2022/06/03 12:25:01;;;;;;;3.60;1.87;;;25.90;80.90;;;;;;4989334;28;21001;-67
2022/06/03 12:27:40;;;;;;;4.97;2.17;;;25.80;84.00;;;;;;4986698;28;20953;-68
2022/06/03 12:30:13;;;;;;;3.67;1.80;;;25.70;85.70;;;;;;4987944;28;20505;-70
2022/06/03 12:32:46;;;;;;;3.13;1.50;;;25.50;85.90;;;;;;4992081;28;20458;-66
2022/06/03 12:35:44;;;;;;;3.50;1.97;;;25.40;83.90;;;;;;4989179;28;20434;-68
2022/06/03 12:38:22;;;;;;;3.50;1.90;;;25.30;83.50;;;;;;4983323;28;20442;-64
2022/06/03 12:40:51;;;;;;;3.40;1.93;;;25.30;87.20;;;;;;4983107;28;21101;-64
2022/06/03 12:43:29;;;;;;;3.70;1.63;;;25.20;87.40;;;;;;4984995;28;20439;-69
2022/06/03 12:46:10;;;;;;;3.17;2.20;;;25.10;90.30;;;;;;4977500;28;20418;-68
2022/06/03 12:48:51;;;;;;;2.93;1.73;;;25.00;90.50;;;;;;4973997;28;20828;-71
2022/06/03 12:51:25;;;;;;;4.43;1.87;;;24.80;90.60;;;;;;4991980;28;20887;-72
2022/06/03 12:54:14;;;;;;;11.70;2.60;;;24.80;89.20;;;;;;5007759;28;20600;-71
2022/06/03 12:56:51;;;;;;;2.70;1.53;;;25.00;87.50;;;;;;5001656;28;20427;-70
2022/06/03 12:59:23;;;;;;;5.33;2.20;;;25.10;86.70;;;;;;4985500;28;20441;-72
2022/06/03 13:02:03;;;;;;;3.87;1.77;;;25.20;86.20;;;;;;4986594;28;20442;-72
2022/06/03 13:04:37;;;;;;;2.70;1.87;;;25.40;84.70;;;;;;4986960;28;20428;-71
2022/06/03 13:07:28;;;;;;;8.50;2.30;;;25.70;83.70;;;;;;4984282;28;20443;-71
2022/06/03 13:10:02;;;;;;;13.50;1.80;;;26.00;83.90;;;;;;4988093;28;20422;-71
2022/06/03 13:12:27;;;;;;;4.47;2.30;;;26.10;85.20;;;;;;4986980;28;20470;-69
2022/06/03 13:14:53;;;;;;;5.17;2.70;;;26.10;83.00;;;;;;4984481;28;20997;-66
2022/06/03 13:18:10;;;;;;;4.00;2.03;;;26.00;84.30;;;;;;4982626;28;20903;-64
2022/06/03 13:21:00;;;;;;;3.90;2.00;;;26.00;84.60;;;;;;4973440;28;20667;-64
2022/06/03 13:23:33;;;;;;;4.60;1.90;;;25.80;86.50;;;;;;4987442;28;20446;-68
2022/06/03 13:26:21;;;;;;;4.83;1.80;;;25.60;89.50;;;;;;4988980;28;20526;-68
2022/06/03 13:28:55;;;;;;;2.83;1.93;;;25.40;86.50;;;;;;4987232;28;20445;-67
2022/06/03 13:31:26;;;;;;;5.27;1.87;;;25.30;88.40;;;;;;4988419;28;20433;-68
2022/06/03 13:34:10;;;;;;;3.80;1.90;;;25.30;86.80;;;;;;4986036;28;20492;-67
2022/06/03 13:36:45;;;;;;;2.70;1.40;;;25.20;87.20;;;;;;4987964;28;20445;-66
2022/06/03 13:39:24;;;;;;;5.40;2.70;;;25.30;88.40;;;;;;4988241;28;20825;-67
2022/06/03 13:45:02;;;;;;;5.37;2.40;;;24.90;91.80;;;;;;4986105;28;20434;-69
2022/06/03 13:47:33;;;;;;;7.83;3.10;;;24.60;93.30;;;;;;4987890;28;21168;-67
2022/06/03 13:50:13;;;;;;;4.23;2.60;;;24.30;94.20;;;;;;4987808;28;20526;-67
2022/06/03 13:52:51;;;;;;;9.20;2.83;;;24.20;94.60;;;;;;4994441;28;20469;-68
2022/06/03 13:55:34;;;;;;;5.37;3.30;;;24.20;94.50;;;;;;4987604;28;20414;-68
2022/06/03 13:58:16;;;;;;;5.07;3.17;;;24.10;94.70;;;;;;4983155;28;20429;-68
2022/06/03 14:00:50;;;;;;;24.37;3.37;;;24.10;94.60;;;;;;4982534;28;20528;-68
2022/06/03 14:03:34;;;;;;;8.10;4.60;;;24.10;95.00;;;;;;4983295;28;20449;-70
2022/06/03 14:06:08;;;;;;;7.30;3.40;;;24.10;94.70;;;;;;4985078;28;20827;-68
2022/06/03 14:08:42;;;;;;;5.50;2.67;;;24.00;95.10;;;;;;4983960;28;20450;-68
2022/06/03 14:11:15;;;;;;;4.63;3.00;;;23.80;95.10;;;;;;4983678;28;20452;-69
2022/06/03 14:13:46;;;;;;;4.07;2.50;;;23.70;94.90;;;;;;4978867;28;20477;-69
2022/06/03 14:16:18;;;;;;;6.80;3.03;;;23.70;95.60;;;;;;4970498;28;20443;-67
2022/06/03 14:19:01;;;;;;;7.87;3.53;;;23.70;96.20;;;;;;4980557;28;20446;-68
2022/06/03 14:21:49;;;;;;;9.20;4.30;;;23.70;96.90;;;;;;4977518;28;20420;-67
2022/06/03 14:24:31;;;;;;;11.00;3.60;;;23.70;97.10;;;;;;4976357;28;20459;-69